sensor_id;sensor_type;location;lat;lon;timestamp;pressure;altitude;pressure_sealevel;temperature;humidity
38038;BME280;23843;51.320;12.340;2024-03-29T00:01:53;98666.59;;;9.69;49.81
38038;BME280;23843;51.320;12.340;2024-03-29T00:04:19;98664.91;;;9.68;49.79
38038;BME280;23843;51.320;12.340;2024-03-29T00:06:45;98664.91;;;9.68;49.80
38038;BME280;23843;51.320;12.340;2024-03-29T00:09:10;98664.66;;;9.70;49.85
38038;BME280;23843;51.320;12.340;2024-03-29T00:11:36;98674.66;;;9.71;49.67
38038;BME280;23843;51.320;12.340;2024-03-29T00:14:02;98676.59;;;9.70;49.53
38038;BME280;23843;51.320;12.340;2024-03-29T00:16:28;98673.25;;;9.68;49.71
38038;BME280;23843;51.320;12.340;2024-03-29T00:18:53;98682.09;;;9.65;49.82
38038;BME280;23843;51.320;12.340;2024-03-29T00:21:19;98676.84;;;9.64;49.88
38038;BME280;23843;51.320;12.340;2024-03-29T00:23:44;98680.72;;;9.63;49.76
38038;BME280;23843;51.320;12.340;2024-03-29T00:26:10;98690.13;;;9.62;49.90
38038;BME280;23843;51.320;12.340;2024-03-29T00:28:35;98681.50;;;9.58;49.88
38038;BME280;23843;51.320;12.340;2024-03-29T00:31:02;98674.56;;;9.56;49.84
38038;BME280;23843;51.320;12.340;2024-03-29T00:33:28;98679.56;;;9.54;49.92
38038;BME280;23843;51.320;12.340;2024-03-29T00:35:53;98672.59;;;9.51;49.85
38038;BME280;23843;51.320;12.340;2024-03-29T00:38:19;98673.69;;;9.50;49.92
38038;BME280;23843;51.320;12.340;2024-03-29T00:40:44;98663.44;;;9.46;49.83
38038;BME280;23843;51.320;12.340;2024-03-29T00:43:10;98663.41;;;9.41;49.99
38038;BME280;23843;51.320;12.340;2024-03-29T00:45:35;98666.97;;;9.36;50.01
38038;BME280;23843;51.320;12.340;2024-03-29T00:48:02;98657.28;;;9.33;49.78
38038;BME280;23843;51.320;12.340;2024-03-29T00:50:28;98667.53;;;9.33;50.36
38038;BME280;23843;51.320;12.340;2024-03-29T00:52:53;98664.44;;;9.29;50.32
38038;BME280;23843;51.320;12.340;2024-03-29T00:55:19;98672.75;;;9.29;50.12
38038;BME280;23843;51.320;12.340;2024-03-29T00:57:45;98679.16;;;9.30;49.81
38038;BME280;23843;51.320;12.340;2024-03-29T01:00:11;98677.75;;;9.27;50.06
38038;BME280;23843;51.320;12.340;2024-03-29T01:02:36;98686.34;;;9.26;50.16
38038;BME280;23843;51.320;12.340;2024-03-29T01:05:05;98687.44;;;9.25;50.03
38038;BME280;23843;51.320;12.340;2024-03-29T01:07:30;98688.28;;;9.25;50.26
38038;BME280;23843;51.320;12.340;2024-03-29T01:09:56;98690.22;;;9.25;50.16
38038;BME280;23843;51.320;12.340;2024-03-29T01:12:21;98691.56;;;9.22;49.98
38038;BME280;23843;51.320;12.340;2024-03-29T01:14:47;98701.56;;;9.23;50.16
38038;BME280;23843;51.320;12.340;2024-03-29T01:17:12;98690.72;;;9.22;50.16
38038;BME280;23843;51.320;12.340;2024-03-29T01:19:38;98691.81;;;9.21;50.31
38038;BME280;23843;51.320;12.340;2024-03-29T01:22:05;98681.56;;;9.21;50.70
38038;BME280;23843;51.320;12.340;2024-03-29T01:24:31;98689.88;;;9.21;50.21
38038;BME280;23843;51.320;12.340;2024-03-29T01:26:56;98694.59;;;9.21;50.48
38038;BME280;23843;51.320;12.340;2024-03-29T01:29:22;98704.88;;;9.20;50.41
38038;BME280;23843;51.320;12.340;2024-03-29T01:31:47;98698.50;;;9.20;50.25
38038;BME280;23843;51.320;12.340;2024-03-29T01:34:13;98703.19;;;9.19;50.11
38038;BME280;23843;51.320;12.340;2024-03-29T01:36:38;98704.88;;;9.20;50.24
38038;BME280;23843;51.320;12.340;2024-03-29T01:39:05;98694.34;;;9.22;50.64
38038;BME280;23843;51.320;12.340;2024-03-29T01:41:30;98699.88;;;9.22;50.38
38038;BME280;23843;51.320;12.340;2024-03-29T01:43:56;98695.75;;;9.25;50.80
38038;BME280;23843;51.320;12.340;2024-03-29T01:46:23;98683.00;;;9.24;50.03
38038;BME280;23843;51.320;12.340;2024-03-29T01:48:49;98673.31;;;9.26;50.37
38038;BME280;23843;51.320;12.340;2024-03-29T01:51:15;98676.09;;;9.26;50.18
38038;BME280;23843;51.320;12.340;2024-03-29T01:53:41;98674.41;;;9.25;50.40
38038;BME280;23843;51.320;12.340;2024-03-29T01:56:09;98686.88;;;9.28;50.22
38038;BME280;23843;51.320;12.340;2024-03-29T01:58:35;98678.31;;;9.29;50.43
38038;BME280;23843;51.320;12.340;2024-03-29T02:01:00;98667.47;;;9.28;50.51
38038;BME280;23843;51.320;12.340;2024-03-29T02:03:26;98662.78;;;9.28;50.42
38038;BME280;23843;51.320;12.340;2024-03-29T02:05:52;98663.91;;;9.27;50.21
38038;BME280;23843;51.320;12.340;2024-03-29T02:08:18;98648.09;;;9.28;50.54
38038;BME280;23843;51.320;12.340;2024-03-29T02:10:46;98667.78;;;9.26;50.61
38038;BME280;23843;51.320;12.340;2024-03-29T02:13:13;98673.56;;;9.25;50.26
38038;BME280;23843;51.320;12.340;2024-03-29T02:15:39;98677.72;;;9.22;50.28
38038;BME280;23843;51.320;12.340;2024-03-29T02:18:05;98683.50;;;9.21;50.38
38038;BME280;23843;51.320;12.340;2024-03-29T02:20:31;98679.09;;;9.20;51.02
38038;BME280;23843;51.320;12.340;2024-03-29T02:23:00;98681.88;;;9.20;50.73
38038;BME280;23843;51.320;12.340;2024-03-29T02:25:29;98671.88;;;9.19;50.84
38038;BME280;23843;51.320;12.340;2024-03-29T02:27:54;98682.13;;;9.18;50.48
38038;BME280;23843;51.320;12.340;2024-03-29T02:30:20;98696.25;;;9.17;50.97
38038;BME280;23843;51.320;12.340;2024-03-29T02:32:46;98705.13;;;9.19;51.02
38038;BME280;23843;51.320;12.340;2024-03-29T02:35:11;98710.09;;;9.17;50.48
38038;BME280;23843;51.320;12.340;2024-03-29T02:37:37;98705.66;;;9.16;50.61
38038;BME280;23843;51.320;12.340;2024-03-29T02:40:03;98700.94;;;9.11;51.37
38038;BME280;23843;51.320;12.340;2024-03-29T02:42:31;98712.25;;;9.10;51.45
38038;BME280;23843;51.320;12.340;2024-03-29T02:44:56;98714.47;;;9.08;50.99
38038;BME280;23843;51.320;12.340;2024-03-29T02:47:21;98715.56;;;9.07;51.14
38038;BME280;23843;51.320;12.340;2024-03-29T02:49:47;98713.91;;;9.06;51.18
38038;BME280;23843;51.320;12.340;2024-03-29T02:52:12;98721.94;;;9.07;51.04
38038;BME280;23843;51.320;12.340;2024-03-29T02:54:39;98728.88;;;9.10;50.93
38038;BME280;23843;51.320;12.340;2024-03-29T02:57:05;98717.81;;;9.10;51.17
38038;BME280;23843;51.320;12.340;2024-03-29T02:59:32;98722.25;;;9.11;50.95
38038;BME280;23843;51.320;12.340;2024-03-29T03:01:57;98723.94;;;9.12;50.85
38038;BME280;23843;51.320;12.340;2024-03-29T03:04:23;98722.25;;;9.11;50.96
38038;BME280;23843;51.320;12.340;2024-03-29T03:06:48;98712.84;;;9.12;50.80
38038;BME280;23843;51.320;12.340;2024-03-29T03:09:13;98707.84;;;9.14;50.81
38038;BME280;23843;51.320;12.340;2024-03-29T03:11:39;98717.81;;;9.10;50.97
38038;BME280;23843;51.320;12.340;2024-03-29T03:14:04;98715.28;;;9.08;51.35
38038;BME280;23843;51.320;12.340;2024-03-29T03:16:31;98705.88;;;9.04;51.35
38038;BME280;23843;51.320;12.340;2024-03-29T03:18:57;98705.28;;;9.02;51.04
38038;BME280;23843;51.320;12.340;2024-03-29T03:21:22;98696.13;;;9.02;51.04
38038;BME280;23843;51.320;12.340;2024-03-29T03:23:48;98702.78;;;9.01;51.17
38038;BME280;23843;51.320;12.340;2024-03-29T03:26:13;98705.81;;;8.99;51.27
38038;BME280;23843;51.320;12.340;2024-03-29T03:28:39;98699.44;;;8.98;50.76
38038;BME280;23843;51.320;12.340;2024-03-29T03:31:04;98705.81;;;8.99;50.77
38038;BME280;23843;51.320;12.340;2024-03-29T03:33:31;98705.81;;;8.99;50.84
38038;BME280;23843;51.320;12.340;2024-03-29T03:35:57;98699.44;;;8.98;51.10
38038;BME280;23843;51.320;12.340;2024-03-29T03:38:22;98692.25;;;8.97;51.12
38038;BME280;23843;51.320;12.340;2024-03-29T03:40:47;98695.03;;;8.97;51.00
38038;BME280;23843;51.320;12.340;2024-03-29T03:43:13;98688.63;;;8.97;50.90
38038;BME280;23843;51.320;12.340;2024-03-29T03:45:39;98674.22;;;8.95;51.43
38038;BME280;23843;51.320;12.340;2024-03-29T03:48:07;98669.50;;;8.90;51.29
38038;BME280;23843;51.320;12.340;2024-03-29T03:50:34;98676.13;;;8.89;51.55
38038;BME280;23843;51.320;12.340;2024-03-29T03:53:00;98658.66;;;8.89;51.01
38038;BME280;23843;51.320;12.340;2024-03-29T03:55:25;98675.81;;;8.86;51.47
38038;BME280;23843;51.320;12.340;2024-03-29T03:57:52;98670.53;;;8.84;51.35
38038;BME280;23843;51.320;12.340;2024-03-29T04:00:18;98661.13;;;8.85;51.19
38038;BME280;23843;51.320;12.340;2024-03-29T04:02:47;98677.19;;;8.83;51.62
38038;BME280;23843;51.320;12.340;2024-03-29T04:05:12;98661.97;;;8.86;50.88
38038;BME280;23843;51.320;12.340;2024-03-29T04:07:39;98663.88;;;8.85;50.87
38038;BME280;23843;51.320;12.340;2024-03-29T04:10:05;98656.16;;;8.87;51.29
38038;BME280;23843;51.320;12.340;2024-03-29T04:12:31;98651.72;;;8.86;51.48
38038;BME280;23843;51.320;12.340;2024-03-29T04:14:56;98665.56;;;8.86;51.26
38038;BME280;23843;51.320;12.340;2024-03-29T04:17:22;98666.41;;;8.87;51.26
38038;BME280;23843;51.320;12.340;2024-03-29T04:19:48;98655.06;;;8.88;51.67
38038;BME280;23843;51.320;12.340;2024-03-29T04:22:14;98647.59;;;8.89;51.68
38038;BME280;23843;51.320;12.340;2024-03-29T04:24:40;98649.78;;;8.87;51.29
38038;BME280;23843;51.320;12.340;2024-03-29T04:27:06;98643.41;;;8.86;51.64
38038;BME280;23843;51.320;12.340;2024-03-29T04:29:31;98635.94;;;8.87;51.60
38038;BME280;23843;51.320;12.340;2024-03-29T04:31:57;98627.94;;;8.90;51.63
38038;BME280;23843;51.320;12.340;2024-03-29T04:34:24;98614.94;;;8.91;51.51
38038;BME280;23843;51.320;12.340;2024-03-29T04:36:50;98632.09;;;8.93;51.42
38038;BME280;23843;51.320;12.340;2024-03-29T04:39:15;98633.78;;;8.94;51.59
38038;BME280;23843;51.320;12.340;2024-03-29T04:41:42;98624.94;;;8.97;51.33
38038;BME280;23843;51.320;12.340;2024-03-29T04:44:08;98628.81;;;9.01;51.70
38038;BME280;23843;51.320;12.340;2024-03-29T04:46:33;98617.75;;;9.01;51.50
38038;BME280;23843;51.320;12.340;2024-03-29T04:48:58;98611.13;;;9.02;51.17
38038;BME280;23843;51.320;12.340;2024-03-29T04:51:24;98612.78;;;9.03;51.15
38038;BME280;23843;51.320;12.340;2024-03-29T04:53:49;98611.44;;;9.06;51.60
38038;BME280;23843;51.320;12.340;2024-03-29T04:56:15;98620.53;;;9.06;51.36
38038;BME280;23843;51.320;12.340;2024-03-29T04:58:42;98615.84;;;9.07;51.17
38038;BME280;23843;51.320;12.340;2024-03-29T05:01:07;98626.91;;;9.07;51.64
38038;BME280;23843;51.320;12.340;2024-03-29T05:03:33;98639.66;;;9.08;51.27
38038;BME280;23843;51.320;12.340;2024-03-29T05:05:58;98659.63;;;9.10;51.63
38038;BME280;23843;51.320;12.340;2024-03-29T05:08:24;98648.84;;;9.13;51.15
38038;BME280;23843;51.320;12.340;2024-03-29T05:10:50;98658.03;;;9.19;51.49
38038;BME280;23843;51.320;12.340;2024-03-29T05:13:16;98659.41;;;9.21;51.52
38038;BME280;23843;51.320;12.340;2024-03-29T05:15:43;98651.66;;;9.18;51.36
38038;BME280;23843;51.320;12.340;2024-03-29T05:18:08;98670.47;;;9.16;51.20
38038;BME280;23843;51.320;12.340;2024-03-29T05:20:34;98659.72;;;9.20;51.14
38038;BME280;23843;51.320;12.340;2024-03-29T05:23:00;98667.78;;;9.26;51.27
38038;BME280;23843;51.320;12.340;2024-03-29T05:25:25;98683.31;;;9.32;51.06
38038;BME280;23843;51.320;12.340;2024-03-29T05:27:51;98682.25;;;9.38;51.00
38038;BME280;23843;51.320;12.340;2024-03-29T05:30:16;98682.00;;;9.45;51.10
38038;BME280;23843;51.320;12.340;2024-03-29T05:32:43;98677.59;;;9.49;51.36
38038;BME280;23843;51.320;12.340;2024-03-29T05:35:09;98684.25;;;9.48;51.23
38038;BME280;23843;51.320;12.340;2024-03-29T05:37:35;98685.34;;;9.52;51.31
38038;BME280;23843;51.320;12.340;2024-03-29T05:40:00;98689.28;;;9.56;51.23
38038;BME280;23843;51.320;12.340;2024-03-29T05:42:26;98687.63;;;9.60;51.17
38038;BME280;23843;51.320;12.340;2024-03-29T05:44:51;98686.25;;;9.63;51.19
38038;BME280;23843;51.320;12.340;2024-03-29T05:47:17;98691.50;;;9.64;51.26
38038;BME280;23843;51.320;12.340;2024-03-29T05:49:44;98687.94;;;9.69;51.03
38038;BME280;23843;51.320;12.340;2024-03-29T05:52:09;98688.22;;;9.72;51.11
38038;BME280;23843;51.320;12.340;2024-03-29T05:54:34;98676.84;;;9.74;51.13
38038;BME280;23843;51.320;12.340;2024-03-29T05:57:00;98691.28;;;9.76;51.22
38038;BME280;23843;51.320;12.340;2024-03-29T05:59:25;98695.19;;;9.80;51.19
38038;BME280;23843;51.320;12.340;2024-03-29T06:01:51;98693.56;;;9.84;51.12
38038;BME280;23843;51.320;12.340;2024-03-29T06:04:16;98687.44;;;9.87;51.06
38038;BME280;23843;51.320;12.340;2024-03-29T06:06:43;98694.97;;;9.92;51.25
38038;BME280;23843;51.320;12.340;2024-03-29T06:09:09;98691.94;;;9.93;51.27
38038;BME280;23843;51.320;12.340;2024-03-29T06:11:34;98690.78;;;9.94;51.12
38038;BME280;23843;51.320;12.340;2024-03-29T06:14:00;98683.03;;;9.96;50.97
38038;BME280;23843;51.320;12.340;2024-03-29T06:16:26;98676.38;;;9.97;50.73
38038;BME280;23843;51.320;12.340;2024-03-29T06:18:52;98691.38;;;10.01;50.92
38038;BME280;23843;51.320;12.340;2024-03-29T06:21:17;98686.13;;;10.05;50.82
38038;BME280;23843;51.320;12.340;2024-03-29T06:23:44;98677.28;;;10.08;50.97
38038;BME280;23843;51.320;12.340;2024-03-29T06:26:10;98681.41;;;10.10;50.95
38038;BME280;23843;51.320;12.340;2024-03-29T06:28:35;98684.50;;;10.14;50.80
38038;BME280;23843;51.320;12.340;2024-03-29T06:31:01;98693.34;;;10.16;50.92
38038;BME280;23843;51.320;12.340;2024-03-29T06:33:26;98677.59;;;10.22;50.78
38038;BME280;23843;51.320;12.340;2024-03-29T06:35:55;98669.81;;;10.24;50.72
38038;BME280;23843;51.320;12.340;2024-03-29T06:38:20;98679.00;;;10.29;50.73
38038;BME280;23843;51.320;12.340;2024-03-29T06:40:47;98689.00;;;10.35;50.71
38038;BME280;23843;51.320;12.340;2024-03-29T06:43:13;98673.72;;;10.38;50.94
38038;BME280;23843;51.320;12.340;2024-03-29T06:45:39;98666.78;;;10.40;50.77
38038;BME280;23843;51.320;12.340;2024-03-29T06:48:06;98670.69;;;10.44;50.81
38038;BME280;23843;51.320;12.340;2024-03-29T06:50:31;98665.16;;;10.49;50.59
38038;BME280;23843;51.320;12.340;2024-03-29T06:52:56;98666.53;;;10.57;50.91
38038;BME280;23843;51.320;12.340;2024-03-29T06:55:22;98641.25;;;10.64;50.44
38038;BME280;23843;51.320;12.340;2024-03-29T06:57:49;98667.34;;;10.68;50.70
38038;BME280;23843;51.320;12.340;2024-03-29T07:00:14;98662.09;;;10.71;50.97
38038;BME280;23843;51.320;12.340;2024-03-29T07:02:40;98662.66;;;10.73;50.51
38038;BME280;23843;51.320;12.340;2024-03-29T07:05:06;98671.81;;;10.79;50.19
38038;BME280;23843;51.320;12.340;2024-03-29T07:07:31;98664.84;;;10.81;50.46
38038;BME280;23843;51.320;12.340;2024-03-29T07:09:57;98682.06;;;10.88;50.47
38038;BME280;23843;51.320;12.340;2024-03-29T07:12:22;98687.38;;;10.95;49.99
38038;BME280;23843;51.320;12.340;2024-03-29T07:14:49;98684.56;;;11.00;50.19
38038;BME280;23843;51.320;12.340;2024-03-29T07:17:14;98697.06;;;11.08;49.96
38038;BME280;23843;51.320;12.340;2024-03-29T07:19:40;98695.69;;;11.10;50.39
38038;BME280;23843;51.320;12.340;2024-03-29T07:22:05;98707.06;;;11.14;49.94
38038;BME280;23843;51.320;12.340;2024-03-29T07:24:31;98707.63;;;11.16;49.96
38038;BME280;23843;51.320;12.340;2024-03-29T07:26:56;98709.56;;;11.15;50.06
38038;BME280;23843;51.320;12.340;2024-03-29T07:29:21;98706.53;;;11.17;49.99
38038;BME280;23843;51.320;12.340;2024-03-29T07:31:48;98718.47;;;11.17;50.32
38038;BME280;23843;51.320;12.340;2024-03-29T07:34:14;98729.59;;;11.17;50.06
38038;BME280;23843;51.320;12.340;2024-03-29T07:36:39;98733.75;;;11.20;50.03
38038;BME280;23843;51.320;12.340;2024-03-29T07:39:04;98756.28;;;11.23;50.29
38038;BME280;23843;51.320;12.340;2024-03-29T07:41:30;98747.94;;;11.23;49.86
38038;BME280;23843;51.320;12.340;2024-03-29T07:43:57;98750.13;;;11.26;50.27
38038;BME280;23843;51.320;12.340;2024-03-29T07:46:22;98760.44;;;11.31;50.04
38038;BME280;23843;51.320;12.340;2024-03-29T07:48:49;98761.81;;;11.33;50.18
38038;BME280;23843;51.320;12.340;2024-03-29T07:51:15;98755.97;;;11.35;50.09
38038;BME280;23843;51.320;12.340;2024-03-29T07:53:40;98752.06;;;11.36;50.29
38038;BME280;23843;51.320;12.340;2024-03-29T07:56:06;98771.81;;;11.40;49.80
38038;BME280;23843;51.320;12.340;2024-03-29T07:58:31;98769.59;;;11.42;49.95
38038;BME280;23843;51.320;12.340;2024-03-29T08:00:57;98768.75;;;11.46;50.07
38038;BME280;23843;51.320;12.340;2024-03-29T08:03:22;98771.25;;;11.48;50.36
38038;BME280;23843;51.320;12.340;2024-03-29T08:05:57;98783.19;;;11.48;49.90
38038;BME280;23843;51.320;12.340;2024-03-29T08:08:23;98778.47;;;11.54;50.22
38038;BME280;23843;51.320;12.340;2024-03-29T08:10:49;98767.06;;;11.55;50.09
38038;BME280;23843;51.320;12.340;2024-03-29T08:13:14;98767.63;;;11.57;49.89
38038;BME280;23843;51.320;12.340;2024-03-29T08:15:39;98775.13;;;11.57;50.20
38038;BME280;23843;51.320;12.340;2024-03-29T08:18:05;98778.19;;;11.55;50.33
38038;BME280;23843;51.320;12.340;2024-03-29T08:20:31;98774.03;;;11.53;50.20
38038;BME280;23843;51.320;12.340;2024-03-29T08:23:00;98784.31;;;11.52;50.16
38038;BME280;23843;51.320;12.340;2024-03-29T08:25:25;98778.19;;;11.50;50.54
38038;BME280;23843;51.320;12.340;2024-03-29T08:27:50;98775.41;;;11.50;50.14
38038;BME280;23843;51.320;12.340;2024-03-29T08:30:16;98760.69;;;11.50;50.81
38038;BME280;23843;51.320;12.340;2024-03-29T08:32:41;98763.47;;;11.50;50.47
38038;BME280;23843;51.320;12.340;2024-03-29T08:35:07;98739.00;;;11.47;50.89
38038;BME280;23843;51.320;12.340;2024-03-29T08:37:33;98729.81;;;11.46;50.89
38038;BME280;23843;51.320;12.340;2024-03-29T08:39:59;98717.56;;;11.47;50.52
38038;BME280;23843;51.320;12.340;2024-03-29T08:42:25;98720.34;;;11.47;50.42
38038;BME280;23843;51.320;12.340;2024-03-29T08:44:50;98718.16;;;11.44;50.22
38038;BME280;23843;51.320;12.340;2024-03-29T08:47:16;98718.69;;;11.46;50.67
38038;BME280;23843;51.320;12.340;2024-03-29T08:49:41;98725.09;;;11.52;50.72
38038;BME280;23843;51.320;12.340;2024-03-29T08:52:07;98715.59;;;11.58;50.22
38038;BME280;23843;51.320;12.340;2024-03-29T08:54:32;98724.78;;;11.58;50.74
38038;BME280;23843;51.320;12.340;2024-03-29T08:56:59;98720.63;;;11.61;50.61
38038;BME280;23843;51.320;12.340;2024-03-29T08:59:24;98717.25;;;11.64;50.58
38038;BME280;23843;51.320;12.340;2024-03-29T09:01:50;98709.47;;;11.66;50.56
38038;BME280;23843;51.320;12.340;2024-03-29T09:04:15;98729.19;;;11.69;50.34
38038;BME280;23843;51.320;12.340;2024-03-29T09:06:41;98730.34;;;11.68;50.32
38038;BME280;23843;51.320;12.340;2024-03-29T09:09:06;98724.22;;;11.66;50.97
38038;BME280;23843;51.320;12.340;2024-03-29T09:11:32;98748.41;;;11.66;50.72
38038;BME280;23843;51.320;12.340;2024-03-29T09:13:59;98749.25;;;11.66;50.35
38038;BME280;23843;51.320;12.340;2024-03-29T09:16:25;98743.94;;;11.70;50.74
38038;BME280;23843;51.320;12.340;2024-03-29T09:18:50;98734.78;;;11.75;50.38
38038;BME280;23843;51.320;12.340;2024-03-29T09:21:16;98716.69;;;11.77;50.71
38038;BME280;23843;51.320;12.340;2024-03-29T09:23:42;98707.78;;;11.80;50.69
38038;BME280;23843;51.320;12.340;2024-03-29T09:26:07;98702.19;;;11.85;50.38
38038;BME280;23843;51.320;12.340;2024-03-29T09:28:33;98706.06;;;11.89;49.98
38038;BME280;23843;51.320;12.340;2024-03-29T09:31:00;98712.47;;;11.90;50.13
38038;BME280;23843;51.320;12.340;2024-03-29T09:33:26;98705.78;;;11.91;50.53
38038;BME280;23843;51.320;12.340;2024-03-29T09:35:51;98708.28;;;11.92;50.40
38038;BME280;23843;51.320;12.340;2024-03-29T09:38:17;98690.47;;;11.93;50.55
38038;BME280;23843;51.320;12.340;2024-03-29T09:40:43;98680.44;;;11.97;50.40
38038;BME280;23843;51.320;12.340;2024-03-29T09:43:10;98680.97;;;12.04;50.19
38038;BME280;23843;51.320;12.340;2024-03-29T09:45:36;98679.25;;;12.08;50.00
38038;BME280;23843;51.320;12.340;2024-03-29T09:48:05;98679.81;;;12.11;50.23
38038;BME280;23843;51.320;12.340;2024-03-29T09:50:31;98677.56;;;12.13;49.50
38038;BME280;23843;51.320;12.340;2024-03-29T09:52:57;98668.63;;;12.16;49.94
38038;BME280;23843;51.320;12.340;2024-03-29T09:55:23;98664.47;;;12.18;50.25
38038;BME280;23843;51.320;12.340;2024-03-29T09:57:49;98664.69;;;12.22;50.17
38038;BME280;23843;51.320;12.340;2024-03-29T10:00:15;98654.94;;;12.24;49.85
38038;BME280;23843;51.320;12.340;2024-03-29T10:02:41;98653.84;;;12.25;49.58
38038;BME280;23843;51.320;12.340;2024-03-29T10:05:09;98665.22;;;12.29;49.77
38038;BME280;23843;51.320;12.340;2024-03-29T10:07:36;98657.41;;;12.31;49.79
38038;BME280;23843;51.320;12.340;2024-03-29T10:10:02;98648.50;;;12.34;49.93
38038;BME280;23843;51.320;12.340;2024-03-29T10:12:28;98650.69;;;12.37;49.97
38038;BME280;23843;51.320;12.340;2024-03-29T10:14:56;98645.91;;;12.42;49.59
38038;BME280;23843;51.320;12.340;2024-03-29T10:17:21;98645.88;;;12.47;49.73
38038;BME280;23843;51.320;12.340;2024-03-29T10:19:46;98645.53;;;12.54;49.42
38038;BME280;23843;51.320;12.340;2024-03-29T10:22:13;98631.28;;;12.61;49.98
38038;BME280;23843;51.320;12.340;2024-03-29T10:24:39;98634.84;;;12.66;49.22
38038;BME280;23843;51.320;12.340;2024-03-29T10:27:05;98634.81;;;12.71;49.32
38038;BME280;23843;51.320;12.340;2024-03-29T10:29:30;98645.09;;;12.76;49.43
38038;BME280;23843;51.320;12.340;2024-03-29T10:31:56;98648.66;;;12.81;49.63
38038;BME280;23843;51.320;12.340;2024-03-29T10:34:21;98644.19;;;12.85;49.25
38038;BME280;23843;51.320;12.340;2024-03-29T10:36:47;98644.13;;;12.91;49.05
38038;BME280;23843;51.320;12.340;2024-03-29T10:39:13;98660.25;;;12.94;49.41
38038;BME280;23843;51.320;12.340;2024-03-29T10:41:40;98666.91;;;12.98;49.22
38038;BME280;23843;51.320;12.340;2024-03-29T10:44:08;98668.03;;;12.97;48.65
38038;BME280;23843;51.320;12.340;2024-03-29T10:46:34;98668.59;;;12.99;49.43
38038;BME280;23843;51.320;12.340;2024-03-29T10:49:02;98666.63;;;12.99;48.87
38038;BME280;23843;51.320;12.340;2024-03-29T10:51:28;98659.09;;;13.00;49.05
38038;BME280;23843;51.320;12.340;2024-03-29T10:53:56;98666.31;;;13.01;49.05
38038;BME280;23843;51.320;12.340;2024-03-29T10:56:24;98662.66;;;13.05;49.04
38038;BME280;23843;51.320;12.340;2024-03-29T10:58:54;98664.84;;;13.08;49.33
38038;BME280;23843;51.320;12.340;2024-03-29T11:01:22;98663.41;;;13.16;49.24
38038;BME280;23843;51.320;12.340;2024-03-29T11:03:50;98661.94;;;13.23;49.01
38038;BME280;23843;51.320;12.340;2024-03-29T11:06:21;98658.50;;;13.32;48.88
38038;BME280;23843;51.320;12.340;2024-03-29T11:08:52;98649.22;;;13.41;49.12
38038;BME280;23843;51.320;12.340;2024-03-29T11:11:18;98648.03;;;13.47;48.98
38038;BME280;23843;51.320;12.340;2024-03-29T11:13:49;98661.91;;;13.52;48.98
38038;BME280;23843;51.320;12.340;2024-03-29T11:16:18;98654.91;;;13.55;48.99
38038;BME280;23843;51.320;12.340;2024-03-29T11:18:44;98656.81;;;13.59;48.98
38038;BME280;23843;51.320;12.340;2024-03-29T11:21:10;98655.63;;;13.66;48.91
38038;BME280;23843;51.320;12.340;2024-03-29T11:23:36;98657.22;;;13.72;48.85
38038;BME280;23843;51.320;12.340;2024-03-29T11:26:02;98659.94;;;13.77;48.71
38038;BME280;23843;51.320;12.340;2024-03-29T11:28:29;98663.50;;;13.82;48.62
38038;BME280;23843;51.320;12.340;2024-03-29T11:31:00;98665.41;;;13.87;48.57
38038;BME280;23843;51.320;12.340;2024-03-29T11:33:27;98670.34;;;13.95;48.69
38038;BME280;23843;51.320;12.340;2024-03-29T11:35:53;98663.56;;;14.01;48.57
38038;BME280;23843;51.320;12.340;2024-03-29T11:38:18;98662.34;;;14.07;48.21
38038;BME280;23843;51.320;12.340;2024-03-29T11:40:53;98666.44;;;14.15;48.41
38038;BME280;23843;51.320;12.340;2024-03-29T11:43:19;98662.44;;;14.21;48.40
38038;BME280;23843;51.320;12.340;2024-03-29T11:45:45;98663.72;;;14.28;48.32
38038;BME280;23843;51.320;12.340;2024-03-29T11:48:15;98659.19;;;14.32;48.17
38038;BME280;23843;51.320;12.340;2024-03-29T11:50:40;98668.38;;;14.38;48.19
38038;BME280;23843;51.320;12.340;2024-03-29T11:53:13;98669.13;;;14.44;47.83
38038;BME280;23843;51.320;12.340;2024-03-29T11:55:39;98669.56;;;14.51;47.94
38038;BME280;23843;51.320;12.340;2024-03-29T11:58:04;98670.03;;;14.58;47.92
38038;BME280;23843;51.320;12.340;2024-03-29T12:00:31;98664.88;;;14.65;47.77
38038;BME280;23843;51.320;12.340;2024-03-29T12:02:57;98678.47;;;14.71;47.94
38038;BME280;23843;51.320;12.340;2024-03-29T12:05:23;98676.94;;;14.79;47.73
38038;BME280;23843;51.320;12.340;2024-03-29T12:07:48;98657.00;;;14.86;47.60
38038;BME280;23843;51.320;12.340;2024-03-29T12:10:17;98658.56;;;14.92;47.58
38038;BME280;23843;51.320;12.340;2024-03-29T12:12:42;98651.72;;;14.98;47.53
38038;BME280;23843;51.320;12.340;2024-03-29T12:15:09;98653.34;;;15.04;47.64
38038;BME280;23843;51.320;12.340;2024-03-29T12:17:34;98641.75;;;15.10;48.04
38038;BME280;23843;51.320;12.340;2024-03-29T12:20:00;98647.78;;;15.17;47.68
38038;BME280;23843;51.320;12.340;2024-03-29T12:22:25;98646.00;;;15.22;47.88
38038;BME280;23843;51.320;12.340;2024-03-29T12:24:51;98648.41;;;15.28;47.96
38038;BME280;23843;51.320;12.340;2024-03-29T12:27:18;98658.88;;;15.36;48.09
38038;BME280;23843;51.320;12.340;2024-03-29T12:29:43;98652.03;;;15.42;47.95
38038;BME280;23843;51.320;12.340;2024-03-29T12:32:09;98656.50;;;15.43;48.35
38038;BME280;23843;51.320;12.340;2024-03-29T12:34:34;98644.41;;;15.48;48.54
38038;BME280;23843;51.320;12.340;2024-03-29T12:37:00;98633.41;;;15.51;48.81
38038;BME280;23843;51.320;12.340;2024-03-29T12:39:30;98621.81;;;15.58;48.47
38038;BME280;23843;51.320;12.340;2024-03-29T12:41:56;98631.78;;;15.64;48.80
38038;BME280;23843;51.320;12.340;2024-03-29T12:44:23;98636.47;;;15.69;48.73
38038;BME280;23843;51.320;12.340;2024-03-29T12:46:48;98635.81;;;15.72;48.79
38038;BME280;23843;51.320;12.340;2024-03-29T12:49:14;98638.53;;;15.77;48.88